sensor_id;sensor_type;location;lat;lon;timestamp;pressure;altitude;pressure_sealevel;temperature;humidity
4570;BME280;2297;51.442;6.996;2023-09-30T00:00:30;101212.19;;;16.75;53.59
4570;BME280;2297;51.442;6.996;2023-09-30T00:02:59;101203.28;;;16.76;53.85
4570;BME280;2297;51.442;6.996;2023-09-30T00:05:26;101201.72;;;16.69;53.94
4570;BME280;2297;51.442;6.996;2023-09-30T00:07:52;101207.16;;;16.66;54.07
4570;BME280;2297;51.442;6.996;2023-09-30T00:10:19;101200.81;;;16.70;54.19
4570;BME280;2297;51.442;6.996;2023-09-30T00:12:46;101208.91;;;16.67;54.01
4570;BME280;2297;51.442;6.996;2023-09-30T00:15:12;101217.81;;;16.66;54.27
4570;BME280;2297;51.442;6.996;2023-09-30T00:17:39;101230.25;;;16.67;54.25
4570;BME280;2297;51.442;6.996;2023-09-30T00:20:08;101237.41;;;16.65;54.04
4570;BME280;2297;51.442;6.996;2023-09-30T00:22:35;101229.50;;;16.62;54.38
4570;BME280;2297;51.442;6.996;2023-09-30T00:25:02;101216.97;;;16.66;54.32
4570;BME280;2297;51.442;6.996;2023-09-30T00:27:29;101210.06;;;16.58;54.50
4570;BME280;2297;51.442;6.996;2023-09-30T00:29:56;101214.44;;;16.61;54.19
4570;BME280;2297;51.442;6.996;2023-09-30T00:32:22;101214.25;;;16.67;54.05
4570;BME280;2297;51.442;6.996;2023-09-30T00:34:49;101207.34;;;16.60;54.44
4570;BME280;2297;51.442;6.996;2023-09-30T00:37:19;101207.25;;;16.63;54.36
4570;BME280;2297;51.442;6.996;2023-09-30T00:39:46;101217.81;;;16.66;54.33
4570;BME280;2297;51.442;6.996;2023-09-30T00:42:12;101221.31;;;16.68;54.22
4570;BME280;2297;51.442;6.996;2023-09-30T00:44:39;101222.34;;;16.64;54.39
4570;BME280;2297;51.442;6.996;2023-09-30T00:47:05;101214.34;;;16.64;54.25
4570;BME280;2297;51.442;6.996;2023-09-30T00:49:34;101219.56;;;16.67;54.42
4570;BME280;2297;51.442;6.996;2023-09-30T00:52:00;101211.56;;;16.67;54.29
4570;BME280;2297;51.442;6.996;2023-09-30T00:54:29;101217.81;;;16.66;54.20
4570;BME280;2297;51.442;6.996;2023-09-30T00:56:57;101211.56;;;16.67;54.19
4570;BME280;2297;51.442;6.996;2023-09-30T00:59:25;101208.00;;;16.68;54.30
4570;BME280;2297;51.442;6.996;2023-09-30T01:01:54;101222.53;;;16.58;54.31
4570;BME280;2297;51.442;6.996;2023-09-30T01:04:23;101230.44;;;16.61;54.36
4570;BME280;2297;51.442;6.996;2023-09-30T01:06:50;101243.97;;;16.55;54.44
4570;BME280;2297;51.442;6.996;2023-09-30T01:09:16;101255.44;;;16.57;54.19
4570;BME280;2297;51.442;6.996;2023-09-30T01:11:44;101243.81;;;16.59;54.13
4570;BME280;2297;51.442;6.996;2023-09-30T01:14:24;101225.19;;;16.58;54.05
4570;BME280;2297;51.442;6.996;2023-09-30T01:16:50;101207.44;;;16.57;53.91
4570;BME280;2297;51.442;6.996;2023-09-30T01:19:17;101208.28;;;16.59;54.16
4570;BME280;2297;51.442;6.996;2023-09-30T01:21:45;101208.19;;;16.62;54.08
4570;BME280;2297;51.442;6.996;2023-09-30T01:24:13;101212.69;;;16.60;53.78
4570;BME280;2297;51.442;6.996;2023-09-30T01:26:40;101204.84;;;16.55;54.00
4570;BME280;2297;51.442;6.996;2023-09-30T01:29:07;101217.44;;;16.50;54.26
4570;BME280;2297;51.442;6.996;2023-09-30T01:31:36;101226.28;;;16.52;54.32
4570;BME280;2297;51.442;6.996;2023-09-30T01:34:03;101231.78;;;16.46;54.47
4570;BME280;2297;51.442;6.996;2023-09-30T01:36:30;101231.78;;;16.46;54.43
4570;BME280;2297;51.442;6.996;2023-09-30T01:38:58;101230.81;;;16.49;54.27
4570;BME280;2297;51.442;6.996;2023-09-30T01:41:26;101239.97;;;16.40;54.62
4570;BME280;2297;51.442;6.996;2023-09-30T01:43:53;101230.16;;;16.42;54.56
4570;BME280;2297;51.442;6.996;2023-09-30T01:46:20;101229.19;;;16.44;54.59
4570;BME280;2297;51.442;6.996;2023-09-30T01:48:48;101236.25;;;16.45;54.64
4570;BME280;2297;51.442;6.996;2023-09-30T01:51:14;101242.44;;;16.46;54.54
4570;BME280;2297;51.442;6.996;2023-09-30T01:53:41;101234.56;;;16.43;54.85
4570;BME280;2297;51.442;6.996;2023-09-30T01:56:09;101240.63;;;16.48;54.58
4570;BME280;2297;51.442;6.996;2023-09-30T01:58:36;101234.91;;;16.32;54.90
4570;BME280;2297;51.442;6.996;2023-09-30T02:01:03;101242.63;;;16.41;54.66
4570;BME280;2297;51.442;6.996;2023-09-30T02:03:30;101246.19;;;16.40;54.92
4570;BME280;2297;51.442;6.996;2023-09-30T02:05:57;101260.31;;;16.42;54.62
4570;BME280;2297;51.442;6.996;2023-09-30T02:08:24;101273.88;;;16.36;55.11
4570;BME280;2297;51.442;6.996;2023-09-30T02:10:51;101272.91;;;16.37;54.96
4570;BME280;2297;51.442;6.996;2023-09-30T02:13:19;101264.91;;;16.37;54.82
4570;BME280;2297;51.442;6.996;2023-09-30T02:15:46;101264.00;;;16.38;54.72
4570;BME280;2297;51.442;6.996;2023-09-30T02:18:12;101259.88;;;16.28;55.00
4570;BME280;2297;51.442;6.996;2023-09-30T02:20:40;101253.84;;;16.23;54.66
4570;BME280;2297;51.442;6.996;2023-09-30T02:23:08;101250.22;;;16.24;54.93
4570;BME280;2297;51.442;6.996;2023-09-30T02:25:36;101245.91;;;16.20;54.70
4570;BME280;2297;51.442;6.996;2023-09-30T02:28:03;101247.75;;;16.18;54.89
4570;BME280;2297;51.442;6.996;2023-09-30T02:30:31;101240.69;;;16.17;54.90
4570;BME280;2297;51.442;6.996;2023-09-30T02:32:57;101235.25;;;16.20;54.86
4570;BME280;2297;51.442;6.996;2023-09-30T02:35:24;101230.06;;;16.15;54.72
4570;BME280;2297;51.442;6.996;2023-09-30T02:37:51;101223.03;;;16.12;54.73
4570;BME280;2297;51.442;6.996;2023-09-30T02:40:19;101235.34;;;16.17;54.58
4570;BME280;2297;51.442;6.996;2023-09-30T02:42:48;101241.81;;;16.08;54.55
4570;BME280;2297;51.442;6.996;2023-09-30T02:45:15;101243.66;;;16.06;54.82
4570;BME280;2297;51.442;6.996;2023-09-30T02:47:44;101234.94;;;16.01;55.05
4570;BME280;2297;51.442;6.996;2023-09-30T02:50:10;101245.13;;;15.85;55.24
4570;BME280;2297;51.442;6.996;2023-09-30T02:52:37;101258.28;;;15.89;55.14
4570;BME280;2297;51.442;6.996;2023-09-30T02:55:07;101258.25;;;15.91;55.21
4570;BME280;2297;51.442;6.996;2023-09-30T02:57:34;101267.28;;;15.85;55.41
4570;BME280;2297;51.442;6.996;2023-09-30T03:00:01;101268.34;;;15.79;55.64
4570;BME280;2297;51.442;6.996;2023-09-30T03:02:37;101264.66;;;15.84;55.55
4570;BME280;2297;51.442;6.996;2023-09-30T03:05:06;101259.25;;;15.87;55.44
4570;BME280;2297;51.442;6.996;2023-09-30T03:07:33;101270.94;;;15.81;55.80
4570;BME280;2297;51.442;6.996;2023-09-30T03:10:00;101262.91;;;15.83;55.77
4570;BME280;2297;51.442;6.996;2023-09-30T03:12:31;101263.06;;;15.78;56.05
4570;BME280;2297;51.442;6.996;2023-09-30T03:14:58;101249.91;;;15.72;56.24
4570;BME280;2297;51.442;6.996;2023-09-30T03:17:24;101261.41;;;15.72;56.29
4570;BME280;2297;51.442;6.996;2023-09-30T03:19:51;101265.47;;;15.54;56.96
4570;BME280;2297;51.442;6.996;2023-09-30T03:22:20;101274.56;;;15.45;57.53
4570;BME280;2297;51.442;6.996;2023-09-30T03:24:47;101264.63;;;15.52;57.26
4570;BME280;2297;51.442;6.996;2023-09-30T03:27:14;101256.53;;;15.57;57.51
4570;BME280;2297;51.442;6.996;2023-09-30T03:29:40;101255.63;;;15.58;57.16
4570;BME280;2297;51.442;6.996;2023-09-30T03:32:07;101256.84;;;15.44;57.57
4570;BME280;2297;51.442;6.996;2023-09-30T03:34:34;101253.44;;;15.39;57.71
4570;BME280;2297;51.442;6.996;2023-09-30T03:37:02;101239.91;;;15.49;57.26
4570;BME280;2297;51.442;6.996;2023-09-30T03:39:33;101249.53;;;15.53;57.06
4570;BME280;2297;51.442;6.996;2023-09-30T03:41:59;101238.56;;;15.65;56.90
4570;BME280;2297;51.442;6.996;2023-09-30T03:44:26;101238.47;;;15.68;56.59
4570;BME280;2297;51.442;6.996;2023-09-30T03:46:53;101239.25;;;15.72;56.57
4570;BME280;2297;51.442;6.996;2023-09-30T03:49:20;101243.50;;;15.46;57.54
4570;BME280;2297;51.442;6.996;2023-09-30T03:51:47;101239.19;;;15.40;57.70
4570;BME280;2297;51.442;6.996;2023-09-30T03:54:16;101235.38;;;15.51;57.50
4570;BME280;2297;51.442;6.996;2023-09-30T03:56:44;101246.75;;;15.57;57.32
4570;BME280;2297;51.442;6.996;2023-09-30T03:59:11;101251.22;;;15.57;57.29
4570;BME280;2297;51.442;6.996;2023-09-30T04:01:38;101249.34;;;15.59;57.20
4570;BME280;2297;51.442;6.996;2023-09-30T04:04:06;101248.59;;;15.54;57.47
4570;BME280;2297;51.442;6.996;2023-09-30T04:06:33;101249.44;;;15.56;57.44
4570;BME280;2297;51.442;6.996;2023-09-30T04:09:03;101244.88;;;15.61;57.15
4570;BME280;2297;51.442;6.996;2023-09-30T04:11:35;101237.81;;;15.60;56.98
4570;BME280;2297;51.442;6.996;2023-09-30T04:14:03;101242.38;;;15.55;57.09
4570;BME280;2297;51.442;6.996;2023-09-30T04:16:31;101240.56;;;15.57;56.98
4570;BME280;2297;51.442;6.996;2023-09-30T04:18:58;101251.22;;;15.57;56.93
4570;BME280;2297;51.442;6.996;2023-09-30T04:21:24;101252.06;;;15.57;56.99
4570;BME280;2297;51.442;6.996;2023-09-30T04:23:52;101248.50;;;15.58;56.81
4570;BME280;2297;51.442;6.996;2023-09-30T04:26:18;101235.97;;;15.62;57.11
4570;BME280;2297;51.442;6.996;2023-09-30T04:28:44;101235.13;;;15.60;56.88
4570;BME280;2297;51.442;6.996;2023-09-30T04:31:12;101228.06;;;15.59;56.50
4570;BME280;2297;51.442;6.996;2023-09-30T04:33:39;101244.03;;;15.59;56.80
4570;BME280;2297;51.442;6.996;2023-09-30T04:36:06;101239.34;;;15.36;57.28
4570;BME280;2297;51.442;6.996;2023-09-30T04:38:34;101255.34;;;15.34;57.51
4570;BME280;2297;51.442;6.996;2023-09-30T04:41:02;101262.41;;;15.35;57.54
4570;BME280;2297;51.442;6.996;2023-09-30T04:43:32;101264.09;;;15.38;57.46
4570;BME280;2297;51.442;6.996;2023-09-30T04:45:59;101264.47;;;15.24;57.95
4570;BME280;2297;51.442;6.996;2023-09-30T04:48:28;101262.13;;;15.10;58.19
4570;BME280;2297;51.442;6.996;2023-09-30T04:50:54;101267.19;;;15.22;58.12
4570;BME280;2297;51.442;6.996;2023-09-30T04:53:21;101282.19;;;15.25;58.05
4570;BME280;2297;51.442;6.996;2023-09-30T04:55:48;101278.69;;;15.23;58.15
4570;BME280;2297;51.442;6.996;2023-09-30T04:58:15;101275.44;;;15.11;58.66
4570;BME280;2297;51.442;6.996;2023-09-30T05:00:42;101279.03;;;15.07;58.57
4570;BME280;2297;51.442;6.996;2023-09-30T05:03:09;101279.78;;;15.14;58.76
4570;BME280;2297;51.442;6.996;2023-09-30T05:05:37;101286.81;;;15.18;58.56
4570;BME280;2297;51.442;6.996;2023-09-30T05:08:04;101292.00;;;15.23;58.42
4570;BME280;2297;51.442;6.996;2023-09-30T05:10:31;101291.13;;;15.22;58.43
4570;BME280;2297;51.442;6.996;2023-09-30T05:12:59;101289.47;;;15.17;58.29
4570;BME280;2297;51.442;6.996;2023-09-30T05:15:25;101293.19;;;15.09;58.78
4570;BME280;2297;51.442;6.996;2023-09-30T05:17:54;101300.38;;;15.04;58.81
4570;BME280;2297;51.442;6.996;2023-09-30T05:20:21;101296.81;;;15.05;58.69
4570;BME280;2297;51.442;6.996;2023-09-30T05:22:49;101293.25;;;15.06;58.82
4570;BME280;2297;51.442;6.996;2023-09-30T05:25:16;101293.25;;;15.06;58.84
4570;BME280;2297;51.442;6.996;2023-09-30T05:27:43;101288.75;;;15.08;58.78
4570;BME280;2297;51.442;6.996;2023-09-30T05:30:10;101282.63;;;15.06;58.78
4570;BME280;2297;51.442;6.996;2023-09-30T05:32:39;101293.25;;;15.06;58.85
4570;BME280;2297;51.442;6.996;2023-09-30T05:35:06;101293.25;;;15.06;58.92
4570;BME280;2297;51.442;6.996;2023-09-30T05:37:38;101304.69;;;15.10;58.72
4570;BME280;2297;51.442;6.996;2023-09-30T05:40:08;101300.25;;;15.10;58.81
4570;BME280;2297;51.442;6.996;2023-09-30T05:42:42;101304.75;;;15.07;58.81
4570;BME280;2297;51.442;6.996;2023-09-30T05:45:10;101303.91;;;15.06;59.11
4570;BME280;2297;51.442;6.996;2023-09-30T05:47:38;101297.88;;;14.98;59.32
4570;BME280;2297;51.442;6.996;2023-09-30T05:50:06;101301.16;;;15.09;59.32
4570;BME280;2297;51.442;6.996;2023-09-30T05:52:34;101303.81;;;15.09;59.06
4570;BME280;2297;51.442;6.996;2023-09-30T05:55:02;101290.50;;;15.09;59.25
4570;BME280;2297;51.442;6.996;2023-09-30T05:57:30;101291.31;;;15.15;59.19
4570;BME280;2297;51.442;6.996;2023-09-30T05:59:56;101292.97;;;15.19;59.09
4570;BME280;2297;51.442;6.996;2023-09-30T06:02:23;101283.28;;;15.16;59.25
4570;BME280;2297;51.442;6.996;2023-09-30T06:04:50;101298.44;;;15.12;59.30
4570;BME280;2297;51.442;6.996;2023-09-30T06:07:19;101295.72;;;15.16;59.44
4570;BME280;2297;51.442;6.996;2023-09-30T06:09:45;101294.94;;;15.10;59.39
4570;BME280;2297;51.442;6.996;2023-09-30T06:12:13;101296.72;;;15.11;59.67
4570;BME280;2297;51.442;6.996;2023-09-30T06:14:41;101296.72;;;15.11;59.67
4570;BME280;2297;51.442;6.996;2023-09-30T06:17:09;101300.47;;;15.01;60.30
4570;BME280;2297;51.442;6.996;2023-09-30T06:19:35;101303.94;;;15.03;60.20
4570;BME280;2297;51.442;6.996;2023-09-30T06:22:03;101309.22;;;15.06;60.10
4570;BME280;2297;51.442;6.996;2023-09-30T06:24:30;101302.03;;;15.11;60.11
4570;BME280;2297;51.442;6.996;2023-09-30T06:26:56;101308.72;;;15.28;59.57
4570;BME280;2297;51.442;6.996;2023-09-30T06:29:23;101305.22;;;15.26;59.74
4570;BME280;2297;51.442;6.996;2023-09-30T06:31:51;101309.56;;;15.30;59.60
4570;BME280;2297;51.442;6.996;2023-09-30T06:34:17;101312.06;;;15.36;59.67
4570;BME280;2297;51.442;6.996;2023-09-30T06:36:44;101311.03;;;15.42;59.41
4570;BME280;2297;51.442;6.996;2023-09-30T06:39:11;101301.19;;;15.45;59.44
4570;BME280;2297;51.442;6.996;2023-09-30T06:41:37;101301.88;;;15.18;60.25
4570;BME280;2297;51.442;6.996;2023-09-30T06:44:04;101299.97;;;15.23;60.17
4570;BME280;2297;51.442;6.996;2023-09-30T06:46:31;101312.28;;;15.27;60.11
4570;BME280;2297;51.442;6.996;2023-09-30T06:48:59;101307.88;;;15.26;60.44
4570;BME280;2297;51.442;6.996;2023-09-30T06:51:25;101307.06;;;15.24;60.44
4570;BME280;2297;51.442;6.996;2023-09-30T06:53:52;101311.34;;;15.29;60.47
4570;BME280;2297;51.442;6.996;2023-09-30T06:56:19;101318.47;;;15.29;60.58
4570;BME280;2297;51.442;6.996;2023-09-30T06:58:45;101313.72;;;15.40;60.49
4570;BME280;2297;51.442;6.996;2023-09-30T07:01:15;101321.38;;;15.54;60.12
4570;BME280;2297;51.442;6.996;2023-09-30T07:03:42;101323.00;;;15.60;60.01
4570;BME280;2297;51.442;6.996;2023-09-30T07:06:10;101318.81;;;15.50;60.38
4570;BME280;2297;51.442;6.996;2023-09-30T07:08:37;101322.03;;;15.62;59.85
4570;BME280;2297;51.442;6.996;2023-09-30T07:11:04;101331.66;;;15.68;59.67
4570;BME280;2297;51.442;6.996;2023-09-30T07:13:32;101337.09;;;15.63;59.59
4570;BME280;2297;51.442;6.996;2023-09-30T07:15:59;101333.78;;;15.55;59.80
4570;BME280;2297;51.442;6.996;2023-09-30T07:18:26;101339.63;;;15.68;59.59
4570;BME280;2297;51.442;6.996;2023-09-30T07:20:52;101342.94;;;15.78;59.46
4570;BME280;2297;51.442;6.996;2023-09-30T07:23:20;101347.91;;;15.57;59.50
4570;BME280;2297;51.442;6.996;2023-09-30T07:25:47;101358.19;;;15.73;59.51
4570;BME280;2297;51.442;6.996;2023-09-30T07:28:14;101353.81;;;15.70;59.71
4570;BME280;2297;51.442;6.996;2023-09-30T07:30:41;101371.81;;;15.93;59.14
4570;BME280;2297;51.442;6.996;2023-09-30T07:33:08;101377.94;;;15.97;59.13
4570;BME280;2297;51.442;6.996;2023-09-30T07:35:34;101390.25;;;16.04;59.08
4570;BME280;2297;51.442;6.996;2023-09-30T07:38:03;101390.84;;;16.14;58.83
4570;BME280;2297;51.442;6.996;2023-09-30T07:40:31;101394.47;;;16.11;58.73
4570;BME280;2297;51.442;6.996;2023-09-30T07:42:58;101392.31;;;16.26;58.58
4570;BME280;2297;51.442;6.996;2023-09-30T07:45:25;101391.97;;;16.38;58.21
4570;BME280;2297;51.442;6.996;2023-09-30T07:47:53;101405.34;;;16.37;58.61
4570;BME280;2297;51.442;6.996;2023-09-30T07:50:20;101408.97;;;16.34;58.53
4570;BME280;2297;51.442;6.996;2023-09-30T07:52:46;101404.28;;;16.42;58.37
4570;BME280;2297;51.442;6.996;2023-09-30T07:55:13;101410.56;;;16.41;58.56
4570;BME280;2297;51.442;6.996;2023-09-30T07:57:42;101407.88;;;16.41;58.50
4570;BME280;2297;51.442;6.996;2023-09-30T08:00:09;101403.47;;;16.40;58.85
4570;BME280;2297;51.442;6.996;2023-09-30T08:02:40;101408.88;;;16.37;58.80
4570;BME280;2297;51.442;6.996;2023-09-30T08:05:08;101403.22;;;16.50;58.45
4570;BME280;2297;51.442;6.996;2023-09-30T08:07:35;101414.03;;;16.43;58.55
4570;BME280;2297;51.442;6.996;2023-09-30T08:10:02;101414.56;;;16.56;58.45
4570;BME280;2297;51.442;6.996;2023-09-30T08:12:30;101414.72;;;16.50;58.79
4570;BME280;2297;51.442;6.996;2023-09-30T08:14:58;101409.09;;;16.61;58.47
4570;BME280;2297;51.442;6.996;2023-09-30T08:17:25;101411.69;;;16.64;58.46
4570;BME280;2297;51.442;6.996;2023-09-30T08:19:51;101414.63;;;16.53;58.85
4570;BME280;2297;51.442;6.996;2023-09-30T08:22:18;101419.25;;;16.48;58.94
4570;BME280;2297;51.442;6.996;2023-09-30T08:24:45;101421.03;;;16.47;59.04
4570;BME280;2297;51.442;6.996;2023-09-30T08:27:11;101425.72;;;16.69;58.57
4570;BME280;2297;51.442;6.996;2023-09-30T08:29:39;101430.91;;;16.75;58.23
4570;BME280;2297;51.442;6.996;2023-09-30T08:32:07;101442.56;;;16.40;59.50
4570;BME280;2297;51.442;6.996;2023-09-30T08:34:34;101436.81;;;16.22;60.03
4570;BME280;2297;51.442;6.996;2023-09-30T08:37:00;101438.41;;;16.61;58.90
4570;BME280;2297;51.442;6.996;2023-09-30T08:39:27;101435.44;;;16.72;58.47
4570;BME280;2297;51.442;6.996;2023-09-30T08:41:55;101429.06;;;16.77;58.16
4570;BME280;2297;51.442;6.996;2023-09-30T08:44:21;101429.59;;;16.90;57.78
4570;BME280;2297;51.442;6.996;2023-09-30T08:46:49;101429.81;;;16.83;58.16
4570;BME280;2297;51.442;6.996;2023-09-30T08:49:19;101432.69;;;16.75;58.11
4570;BME280;2297;51.442;6.996;2023-09-30T08:51:48;101424.00;;;16.68;58.24
4570;BME280;2297;51.442;6.996;2023-09-30T08:54:16;101417.88;;;16.96;57.95
4570;BME280;2297;51.442;6.996;2023-09-30T08:56:44;101420.28;;;17.05;57.35
4570;BME280;2297;51.442;6.996;2023-09-30T08:59:13;101419.03;;;16.87;57.08
4570;BME280;2297;51.442;6.996;2023-09-30T09:01:41;101411.31;;;16.76;57.75
4570;BME280;2297;51.442;6.996;2023-09-30T09:04:08;101417.50;;;17.08;56.72
4570;BME280;2297;51.442;6.996;2023-09-30T09:06:36;101408.75;;;17.03;56.58
4570;BME280;2297;51.442;6.996;2023-09-30T09:09:13;101395.38;;;17.05;56.32
4570;BME280;2297;51.442;6.996;2023-09-30T09:11:40;101387.53;;;17.00;56.26
4570;BME280;2297;51.442;6.996;2023-09-30T09:14:06;101390.41;;;17.21;55.49
4570;BME280;2297;51.442;6.996;2023-09-30T09:16:33;101406.66;;;17.15;55.11
4570;BME280;2297;51.442;6.996;2023-09-30T09:19:12;101398.78;;;17.10;54.65
4570;BME280;2297;51.442;6.996;2023-09-30T09:21:53;101397.63;;;16.89;55.17
4570;BME280;2297;51.442;6.996;2023-09-30T09:24:31;101390.91;;;17.34;54.23
4570;BME280;2297;51.442;6.996;2023-09-30T09:27:08;101392.88;;;17.55;53.44
4570;BME280;2297;51.442;6.996;2023-09-30T09:29:35;101402.38;;;17.64;52.80
4570;BME280;2297;51.442;6.996;2023-09-30T09:32:10;101404.97;;;17.67;52.69
4570;BME280;2297;51.442;6.996;2023-09-30T09:34:37;101404.97;;;17.67;52.64
4570;BME280;2297;51.442;6.996;2023-09-30T09:37:15;101395.28;;;17.91;51.41
4570;BME280;2297;51.442;6.996;2023-09-30T09:39:49;101388.94;;;17.94;51.72
4570;BME280;2297;51.442;6.996;2023-09-30T09:42:24;101396.66;;;18.03;51.02
4570;BME280;2297;51.442;6.996;2023-09-30T09:44:54;101387.91;;;18.23;50.53
4570;BME280;2297;51.442;6.996;2023-09-30T09:47:21;101393.78;;;17.83;49.92
4570;BME280;2297;51.442;6.996;2023-09-30T09:49:48;101406.25;;;18.09;49.27
4570;BME280;2297;51.442;6.996;2023-09-30T09:52:17;101400.00;;;17.55;50.83
4570;BME280;2297;51.442;6.996;2023-09-30T09:54:45;101392.56;;;17.66;49.69
4570;BME280;2297;51.442;6.996;2023-09-30T09:57:12;101397.81;;;17.94;48.78
4570;BME280;2297;51.442;6.996;2023-09-30T09:59:39;101403.53;;;17.57;48.50
4570;BME280;2297;51.442;6.996;2023-09-30T10:02:10;101399.56;;;17.95;47.53
4570;BME280;2297;51.442;6.996;2023-09-30T10:04:37;101396.38;;;17.84;47.91
4570;BME280;2297;51.442;6.996;2023-09-30T10:07:05;101402.00;;;17.76;47.39
4570;BME280;2297;51.442;6.996;2023-09-30T10:09:35;101404.94;;;18.21;46.69
4570;BME280;2297;51.442;6.996;2023-09-30T10:12:02;101427.63;;;18.34;46.91
4570;BME280;2297;51.442;6.996;2023-09-30T10:14:32;101432.97;;;18.59;45.90
4570;BME280;2297;51.442;6.996;2023-09-30T10:16:59;101438.63;;;18.75;45.50
4570;BME280;2297;51.442;6.996;2023-09-30T10:19:26;101439.13;;;18.61;44.98
4570;BME280;2297;51.442;6.996;2023-09-30T10:22:20;101430.72;;;18.96;44.00
4570;BME280;2297;51.442;6.996;2023-09-30T10:24:49;101416.28;;;19.00;44.62
4570;BME280;2297;51.442;6.996;2023-09-30T10:27:31;101415.66;;;19.16;43.97
4570;BME280;2297;51.442;6.996;2023-09-30T10:30:12;101422.50;;;19.47;43.81
4570;BME280;2297;51.442;6.996;2023-09-30T10:33:12;101421.56;;;19.48;43.68
4570;BME280;2297;51.442;6.996;2023-09-30T10:35:46;101427.25;;;19.40;43.75
4570;BME280;2297;51.442;6.996;2023-09-30T10:38:38;101432.25;;;19.70;43.11
4570;BME280;2297;51.442;6.996;2023-09-30T10:41:10;101436.75;;;19.47;42.09
4570;BME280;2297;51.442;6.996;2023-09-30T10:43:40;101434.63;;;19.77;41.82
4570;BME280;2297;51.442;6.996;2023-09-30T10:46:29;101433.63;;;19.80;42.12
4570;BME280;2297;51.442;6.996;2023-09-30T10:48:55;101436.44;;;19.77;41.83
4570;BME280;2297;51.442;6.996;2023-09-30T10:51:22;101444.22;;;19.61;40.80
4570;BME280;2297;51.442;6.996;2023-09-30T10:53:50;101440.81;;;19.11;40.35
4570;BME280;2297;51.442;6.996;2023-09-30T10:56:23;101429.28;;;19.33;40.17
4570;BME280;2297;51.442;6.996;2023-09-30T10:58:53;101422.66;;;19.20;40.99
4570;BME280;2297;51.442;6.996;2023-09-30T11:01:23;101418.81;;;19.27;41.05
4570;BME280;2297;51.442;6.996;2023-09-30T11:03:57;101425.47;;;18.69;41.67
4570;BME280;2297;51.442;6.996;2023-09-30T11:06:24;101410.81;;;19.03;41.63
4570;BME280;2297;51.442;6.996;2023-09-30T11:08:53;101415.81;;;19.57;40.48
4570;BME280;2297;51.442;6.996;2023-09-30T11:11:33;101417.78;;;19.74;40.29
4570;BME280;2297;51.442;6.996;2023-09-30T11:14:00;101406.09;;;19.54;40.17
4570;BME280;2297;51.442;6.996;2023-09-30T11:16:27;101406.44;;;20.10;39.96
4570;BME280;2297;51.442;6.996;2023-09-30T11:18:54;101400.94;;;20.34;39.89
4570;BME280;2297;51.442;6.996;2023-09-30T11:21:22;101395.19;;;20.62;39.31
4570;BME280;2297;51.442;6.996;2023-09-30T11:23:50;101381.66;;;20.65;38.62
4570;BME280;2297;51.442;6.996;2023-09-30T11:26:29;101384.50;;;20.81;38.42
4570;BME280;2297;51.442;6.996;2023-09-30T11:29:04;101380.56;;;20.88;38.36
4570;BME280;2297;51.442;6.996;2023-09-30T11:31:31;101391.25;;;20.90;38.06
4570;BME280;2297;51.442;6.996;2023-09-30T11:34:00;101388.47;;;21.10;37.96
4570;BME280;2297;51.442;6.996;2023-09-30T11:36:29;101378.66;;;21.28;37.04
4570;BME280;2297;51.442;6.996;2023-09-30T11:38:56;101387.69;;;21.08;37.16
4570;BME280;2297;51.442;6.996;2023-09-30T11:41:32;101391.81;;;20.77;37.70
4570;BME280;2297;51.442;6.996;2023-09-30T11:44:02;101388.69;;;20.87;37.08
4570;BME280;2297;51.442;6.996;2023-09-30T11:46:47;101380.84;;;21.01;37.17
4570;BME280;2297;51.442;6.996;2023-09-30T11:49:24;101381.28;;;21.11;37.38
4570;BME280;2297;51.442;6.996;2023-09-30T11:51:51;101378.97;;;20.84;37.91
4570;BME280;2297;51.442;6.996;2023-09-30T11:54:18;101390.81;;;20.99;38.25
4570;BME280;2297;51.442;6.996;2023-09-30T11:56:44;101391.69;;;20.41;38.37
4570;BME280;2297;51.442;6.996;2023-09-30T11:59:14;101382.56;;;20.45;38.56
4570;BME280;2297;51.442;6.996;2023-09-30T12:01:40;101386.91;;;20.48;38.94
4570;BME280;2297;51.442;6.996;2023-09-30T12:04:08;101388.09;;;20.61;38.67
4570;BME280;2297;51.442;6.996;2023-09-30T12:06:36;101375.66;;;20.98;38.12
4570;BME280;2297;51.442;6.996;2023-09-30T12:09:03;101381.41;;;21.27;38.14
4570;BME280;2297;51.442;6.996;2023-09-30T12:11:30;101375.16;;;21.46;36.88
4570;BME280;2297;51.442;6.996;2023-09-30T12:13:57;101359.03;;;21.46;36.82
4570;BME280;2297;51.442;6.996;2023-09-30T12:16:25;101356.19;;;21.66;36.76
4570;BME280;2297;51.442;6.996;2023-09-30T12:18:51;101338.06;;;21.87;36.47
4570;BME280;2297;51.442;6.996;2023-09-30T12:21:18;101335.94;;;22.12;36.08
4570;BME280;2297;51.442;6.996;2023-09-30T12:23:46;101347.50;;;21.61;36.10
4570;BME280;2297;51.442;6.996;2023-09-30T12:26:14;101334.03;;;21.96;35.61
4570;BME280;2297;51.442;6.996;2023-09-30T12:28:45;101329.69;;;22.11;35.38
4570;BME280;2297;51.442;6.996;2023-09-30T12:31:12;101326.28;;;22.41;34.63
4570;BME280;2297;51.442;6.996;2023-09-30T12:33:40;101323.66;;;22.39;34.75
4570;BME280;2297;51.442;6.996;2023-09-30T12:36:07;101315.53;;;22.41;33.98
4570;BME280;2297;51.442;6.996;2023-09-30T12:38:33;101323.00;;;22.52;34.23
4570;BME280;2297;51.442;6.996;2023-09-30T12:41:00;101331.38;;;22.30;33.49
4570;BME280;2297;51.442;6.996;2023-09-30T12:43:27;101341.56;;;22.40;33.13
4570;BME280;2297;51.442;6.996;2023-09-30T12:45:53;101339.16;;;22.52;33.88
4570;BME280;2297;51.442;6.996;2023-09-30T12:48:20;101332.19;;;22.32;33.84
4570;BME280;2297;51.442;6.996;2023-09-30T12:50:48;101341.03;;;21.83;32.86
4570;BME280;2297;51.442;6.996;2023-09-30T12:53:14;101330.47;;;22.47;32.95
4570;BME280;2297;51.442;6.996;2023-09-30T12:55:41;101323.84;;;22.36;32.16
4570;BME280;2297;51.442;6.996;2023-09-30T12:58:08;101329.06;;;22.55;31.91
4570;BME280;2297;51.442;6.996;2023-09-30T13:00:35;101316.56;;;21.87;32.65
4570;BME280;2297;51.442;6.996;2023-09-30T13:03:02;101318.63;;;22.33;32.72
4570;BME280;2297;51.442;6.996;2023-09-30T13:05:29;101325.22;;;22.43;33.44
4570;BME280;2297;51.442;6.996;2023-09-30T13:07:57;101327.69;;;22.64;33.52
4570;BME280;2297;51.442;6.996;2023-09-30T13:10:24;101329.38;;;22.17;33.93
4570;BME280;2297;51.442;6.996;2023-09-30T13:12:51;101316.59;;;22.21;33.21
4570;BME280;2297;51.442;6.996;2023-09-30T13:15:19;101309.88;;;22.46;33.65